Time;durP1;ratioP1;P1;durP2;ratioP2;P2;SDS_P1;SDS_P2;PMS_P1;PMS_P2;Temp;Humidity;BMP_temperature;BMP_pressure;BME280_temperature;BME280_humidity;BME280_pressure;Samples;Min_cycle;Max_cycle;Signal;HPM_P1;HPM_P2
2022/04/10 00:01:36;;;;;;;5.13;3.20;;;5.40;99.90;;;;;;6204037;23;20839;-86
2022/04/10 00:04:02;;;;;;;3.07;2.77;;;5.40;99.90;;;;;;6200934;23;20470;-88
2022/04/10 00:06:31;;;;;;;4.07;3.27;;;5.50;99.90;;;;;;6199949;23;20379;-86
2022/04/10 00:08:58;;;;;;;5.60;4.63;;;5.50;99.90;;;;;;6200992;23;20440;-87
2022/04/10 00:11:25;;;;;;;3.50;3.20;;;5.50;99.90;;;;;;6175333;23;20456;-87
2022/04/10 00:13:52;;;;;;;4.00;3.40;;;5.60;99.90;;;;;;6197757;23;20396;-86
2022/04/10 00:16:19;;;;;;;5.03;3.80;;;5.60;99.90;;;;;;6176304;23;20412;-86
2022/04/10 00:18:46;;;;;;;7.67;4.20;;;5.60;99.90;;;;;;6206800;23;20426;-88
2022/04/10 00:21:13;;;;;;;4.77;3.23;;;5.60;99.90;;;;;;6202216;23;20437;-87
2022/04/10 00:23:41;;;;;;;4.20;3.10;;;5.60;99.90;;;;;;6203551;23;20410;-86
2022/04/10 00:29:30;;;;;;;9.17;3.37;;;5.60;99.90;;;;;;6212984;23;20409;-89
2022/04/10 00:31:57;;;;;;;4.60;3.30;;;5.50;99.90;;;;;;6203710;23;20470;-88
2022/04/10 00:34:24;;;;;;;6.50;3.70;;;5.50;99.90;;;;;;6204041;23;20407;-88
2022/04/10 00:36:52;;;;;;;6.23;3.90;;;5.50;99.90;;;;;;6206605;23;20428;-88
2022/04/10 00:39:21;;;;;;;5.20;3.20;;;5.40;99.90;;;;;;6206790;23;20420;-87
2022/04/10 00:41:49;;;;;;;4.43;3.50;;;5.30;99.90;;;;;;6200019;23;20492;-86
2022/04/10 00:44:16;;;;;;;6.47;4.27;;;5.30;99.90;;;;;;6194684;23;20417;-87
2022/04/10 00:46:43;;;;;;;4.50;3.83;;;5.20;99.90;;;;;;6189832;23;20398;-86
2022/04/10 00:49:10;;;;;;;4.77;3.97;;;5.20;99.90;;;;;;6202240;23;20484;-87
2022/04/10 00:51:43;;;;;;;3.57;3.23;;;5.20;99.90;;;;;;6172014;23;20844;-88
2022/04/10 00:54:12;;;;;;;6.30;3.90;;;5.20;99.90;;;;;;6206551;23;20425;-86
2022/04/10 00:56:41;;;;;;;5.10;3.83;;;5.20;99.90;;;;;;6202375;23;20420;-86
2022/04/10 00:59:09;;;;;;;7.10;3.93;;;5.30;99.90;;;;;;6199890;23;20409;-86
2022/04/10 01:01:37;;;;;;;4.40;3.30;;;5.30;99.90;;;;;;6202480;23;20410;-87
2022/04/10 01:04:05;;;;;;;5.40;4.07;;;5.30;99.90;;;;;;6200343;23;20402;-86
2022/04/10 01:06:34;;;;;;;3.43;3.13;;;5.30;99.90;;;;;;6189407;23;20417;-87
2022/04/10 01:09:02;;;;;;;4.20;3.80;;;5.40;99.90;;;;;;6186769;23;20485;-87
2022/04/10 01:11:29;;;;;;;3.47;3.17;;;5.30;99.90;;;;;;6195948;23;20460;-87
2022/04/10 01:13:57;;;;;;;6.53;4.43;;;5.20;99.90;;;;;;6193675;23;20415;-86
2022/04/10 01:16:25;;;;;;;5.00;3.10;;;5.10;99.90;;;;;;6202081;23;20725;-86
2022/04/10 01:18:52;;;;;;;6.33;5.30;;;5.10;99.90;;;;;;6199080;23;20520;-86
2022/04/10 01:21:25;;;;;;;4.53;3.83;;;5.10;99.90;;;;;;6188838;23;20398;-86
2022/04/10 01:23:54;;;;;;;6.73;3.77;;;5.10;99.90;;;;;;6196645;23;20421;-86
2022/04/10 01:26:21;;;;;;;5.73;3.70;;;5.10;99.90;;;;;;6190284;23;20421;-86
2022/04/10 01:29:01;;;;;;;4.83;3.73;;;5.10;99.90;;;;;;6187671;23;20512;-87
2022/04/10 01:31:33;;;;;;;7.50;5.00;;;5.10;99.90;;;;;;6186215;23;20437;-87
2022/04/10 01:34:01;;;;;;;5.90;4.23;;;5.10;99.90;;;;;;6192589;23;20459;-85
2022/04/10 01:36:29;;;;;;;7.07;5.33;;;5.20;99.90;;;;;;6195916;23;20409;-86
2022/04/10 01:38:58;;;;;;;4.90;4.50;;;5.40;99.90;;;;;;6189411;23;20846;-86
2022/04/10 01:41:27;;;;;;;7.00;3.40;;;5.50;99.90;;;;;;6194055;23;20877;-86
2022/04/10 01:43:55;;;;;;;4.00;3.60;;;5.70;99.90;;;;;;6189536;23;20409;-87
2022/04/10 01:46:24;;;;;;;4.00;3.10;;;5.80;99.60;;;;;;6196515;23;20432;-86
2022/04/10 01:48:51;;;;;;;5.40;4.70;;;5.70;99.50;;;;;;6199897;23;20430;-88
2022/04/10 01:51:17;;;;;;;8.10;3.87;;;5.70;99.70;;;;;;6200660;23;20454;-86
2022/04/10 01:53:44;;;;;;;7.00;3.90;;;5.80;99.60;;;;;;6197326;23;20471;-87
2022/04/10 01:56:13;;;;;;;4.80;3.77;;;5.80;99.50;;;;;;6193532;23;20422;-87
2022/04/10 01:58:42;;;;;;;5.57;3.97;;;5.90;99.30;;;;;;6189658;23;21052;-87
2022/04/10 02:01:12;;;;;;;4.50;3.90;;;5.80;99.10;;;;;;6191221;23;20424;-86
2022/04/10 02:03:40;;;;;;;4.80;3.70;;;5.70;99.50;;;;;;6191014;23;20397;-86
2022/04/10 02:06:08;;;;;;;5.70;4.13;;;5.60;99.50;;;;;;6195484;23;20401;-86
2022/04/10 02:08:35;;;;;;;3.70;3.27;;;5.60;99.80;;;;;;6206314;23;20430;-86
2022/04/10 02:11:03;;;;;;;5.17;4.50;;;5.50;99.90;;;;;;6208084;23;20394;-87
2022/04/10 02:13:31;;;;;;;3.90;3.57;;;5.50;99.90;;;;;;6207294;23;20436;-86
2022/04/10 02:15:58;;;;;;;10.43;4.60;;;5.60;99.90;;;;;;6209496;23;20432;-87
2022/04/10 02:18:25;;;;;;;4.77;4.20;;;5.60;99.90;;;;;;6201584;23;20440;-87
2022/04/10 02:20:52;;;;;;;5.43;3.70;;;5.50;99.90;;;;;;6203663;23;20412;-88
2022/04/10 02:23:19;;;;;;;4.30;3.80;;;5.40;99.90;;;;;;6206568;23;20413;-87
2022/04/10 02:25:46;;;;;;;5.20;3.97;;;5.30;99.90;;;;;;6202327;23;20433;-88
2022/04/10 02:28:13;;;;;;;8.23;3.33;;;5.30;99.90;;;;;;6200384;23;20430;-86
2022/04/10 02:30:41;;;;;;;5.47;3.90;;;5.20;99.90;;;;;;6200738;23;20406;-86
2022/04/10 02:33:08;;;;;;;7.37;4.60;;;5.10;99.90;;;;;;6202121;23;20471;-87
2022/04/10 02:35:35;;;;;;;8.07;4.47;;;5.00;99.90;;;;;;6201653;23;20472;-86
2022/04/10 02:38:02;;;;;;;5.67;4.40;;;4.90;99.90;;;;;;6201644;23;20457;-86
2022/04/10 02:40:29;;;;;;;5.60;4.10;;;4.80;99.90;;;;;;6202700;23;20926;-86
2022/04/10 02:42:55;;;;;;;6.07;4.10;;;4.80;99.90;;;;;;6200916;23;20398;-86
2022/04/10 02:45:22;;;;;;;6.07;3.80;;;4.70;99.90;;;;;;6200818;23;20458;-86
2022/04/10 02:47:51;;;;;;;5.00;4.47;;;4.60;99.90;;;;;;6204580;23;20446;-86
2022/04/10 02:50:18;;;;;;;5.40;4.83;;;4.60;99.90;;;;;;6214237;23;20404;-89
2022/04/10 02:52:45;;;;;;;5.07;4.30;;;4.50;99.90;;;;;;6214418;23;20436;-88
2022/04/10 02:55:12;;;;;;;5.27;4.30;;;4.50;99.90;;;;;;6208721;23;20487;-86
2022/04/10 02:57:39;;;;;;;6.73;4.60;;;4.50;99.90;;;;;;6198884;23;20490;-88
2022/04/10 03:00:08;;;;;;;4.93;4.40;;;4.40;99.90;;;;;;6199405;23;20418;-86
2022/04/10 03:02:35;;;;;;;6.80;4.03;;;4.50;99.90;;;;;;6200752;23;20407;-86
2022/04/10 03:05:04;;;;;;;8.87;4.67;;;4.40;99.90;;;;;;6201751;23;20573;-87
2022/04/10 03:07:31;;;;;;;4.87;4.33;;;4.40;99.90;;;;;;6199360;23;20489;-86
2022/04/10 03:09:58;;;;;;;6.77;4.40;;;4.40;99.90;;;;;;6195717;23;20927;-86
2022/04/10 03:12:25;;;;;;;4.60;4.20;;;4.30;99.90;;;;;;6198355;23;20491;-86
2022/04/10 03:14:51;;;;;;;6.57;5.00;;;4.30;99.90;;;;;;6200511;23;20411;-86
2022/04/10 03:17:18;;;;;;;6.47;4.60;;;4.30;99.90;;;;;;6195816;23;20426;-85
2022/04/10 03:19:45;;;;;;;5.33;4.30;;;4.30;99.90;;;;;;6197247;23;20400;-86
2022/04/10 03:22:14;;;;;;;6.17;4.40;;;4.20;99.90;;;;;;6207044;23;20409;-87
2022/04/10 03:24:41;;;;;;;4.70;4.27;;;4.20;99.90;;;;;;6212059;23;20409;-87
2022/04/10 03:27:08;;;;;;;5.20;4.70;;;4.20;99.90;;;;;;6208907;23;20412;-86
2022/04/10 03:29:35;;;;;;;10.07;5.70;;;4.10;99.90;;;;;;6205740;23;20418;-85
2022/04/10 03:32:02;;;;;;;4.67;4.27;;;4.10;99.90;;;;;;6167648;23;20457;-86
2022/04/10 03:34:28;;;;;;;7.87;5.10;;;4.00;99.90;;;;;;6209853;23;20388;-87
2022/04/10 03:36:55;;;;;;;9.80;5.50;;;4.00;99.90;;;;;;6214196;23;20459;-87
2022/04/10 03:39:24;;;;;;;9.20;5.27;;;4.00;99.90;;;;;;6210689;23;20393;-87
2022/04/10 03:41:51;;;;;;;5.20;4.70;;;4.00;99.90;;;;;;6200095;23;20438;-85
2022/04/10 03:44:18;;;;;;;5.57;4.90;;;3.90;99.90;;;;;;6200320;23;20418;-86
2022/04/10 03:46:50;;;;;;;6.87;4.80;;;3.90;99.90;;;;;;6197638;23;20424;-87
2022/04/10 03:49:17;;;;;;;9.83;5.10;;;3.90;99.90;;;;;;6200723;23;20509;-87
2022/04/10 03:51:44;;;;;;;6.67;5.10;;;3.80;99.90;;;;;;6204739;23;20451;-86
2022/04/10 03:54:11;;;;;;;11.57;6.00;;;3.80;99.90;;;;;;6201151;23;20399;-86
2022/04/10 03:56:39;;;;;;;6.60;5.07;;;3.70;99.90;;;;;;6197334;23;20738;-87
2022/04/10 03:59:06;;;;;;;7.27;6.00;;;3.70;99.90;;;;;;6206276;23;20421;-86
2022/04/10 04:01:33;;;;;;;7.05;5.07;;;3.70;99.90;;;;;;6204825;23;20404;-86
2022/04/10 04:04:00;;;;;;;11.73;5.90;;;3.60;99.90;;;;;;6197726;23;20259;-86
2022/04/10 04:06:27;;;;;;;6.60;5.33;;;3.70;99.90;;;;;;6206165;23;20423;-86
2022/04/10 04:08:54;;;;;;;6.80;5.80;;;3.70;99.90;;;;;;6192923;23;20442;-87
2022/04/10 04:11:21;;;;;;;8.53;5.70;;;3.70;99.90;;;;;;6195263;23;20919;-86
2022/04/10 04:13:49;;;;;;;11.05;5.90;;;3.70;99.90;;;;;;6197623;23;20455;-86
2022/04/10 04:16:18;;;;;;;8.65;6.00;;;3.80;99.90;;;;;;6206326;23;20174;-87
2022/04/10 04:18:45;;;;;;;6.10;5.50;;;3.80;99.90;;;;;;6208274;23;20203;-87
2022/04/10 04:21:12;;;;;;;8.40;5.90;;;3.90;99.90;;;;;;6204305;23;20405;-87
2022/04/10 04:23:39;;;;;;;8.97;5.60;;;4.00;99.90;;;;;;6168708;23;20887;-86
2022/04/10 04:26:06;;;;;;;6.43;5.83;;;4.10;99.90;;;;;;6200908;23;20447;-86
2022/04/10 04:28:36;;;;;;;7.40;5.60;;;4.20;99.90;;;;;;6194055;23;20420;-86
2022/04/10 04:31:04;;;;;;;7.27;6.13;;;4.30;99.90;;;;;;6199393;23;20398;-88
2022/04/10 04:33:31;;;;;;;7.40;5.23;;;4.30;99.90;;;;;;6196582;23;20455;-86
2022/04/10 04:35:57;;;;;;;10.10;5.57;;;4.30;99.90;;;;;;6188641;23;20420;-87
2022/04/10 04:38:25;;;;;;;7.80;6.13;;;4.30;99.90;;;;;;6196232;23;20424;-86
2022/04/10 04:40:52;;;;;;;6.03;5.03;;;4.30;99.90;;;;;;6189330;23;20907;-86
2022/04/10 04:43:19;;;;;;;6.20;5.60;;;4.40;99.90;;;;;;6187803;23;20880;-86
2022/04/10 04:45:45;;;;;;;8.43;6.47;;;4.50;99.90;;;;;;6188386;23;20409;-87
2022/04/10 04:48:14;;;;;;;6.50;5.80;;;4.40;99.90;;;;;;6188875;23;21076;-86
2022/04/10 04:50:44;;;;;;;7.07;5.47;;;4.50;99.90;;;;;;6189390;23;20743;-87
2022/04/10 04:53:12;;;;;;;6.47;5.57;;;4.50;99.90;;;;;;6195466;23;20463;-85
2022/04/10 04:55:39;;;;;;;7.53;5.80;;;4.60;99.90;;;;;;6204129;23;20420;-87
2022/04/10 04:58:06;;;;;;;5.70;5.20;;;4.60;99.90;;;;;;6201715;23;20517;-86
2022/04/10 05:00:33;;;;;;;6.57;5.80;;;4.60;99.90;;;;;;6195751;23;20405;-87
2022/04/10 05:03:00;;;;;;;7.93;6.40;;;4.60;99.90;;;;;;6195577;23;20406;-87
2022/04/10 05:05:29;;;;;;;6.77;5.70;;;4.70;99.90;;;;;;6194987;23;20410;-87
2022/04/10 05:07:56;;;;;;;7.50;6.80;;;4.70;99.90;;;;;;6192877;23;20467;-86
2022/04/10 05:10:23;;;;;;;6.97;5.63;;;4.80;99.90;;;;;;6197272;23;20963;-86
2022/04/10 05:12:49;;;;;;;10.43;5.63;;;4.80;99.90;;;;;;6194048;23;20504;-86
2022/04/10 05:15:18;;;;;;;6.93;6.23;;;4.80;99.90;;;;;;6195212;23;20522;-86
2022/04/10 05:17:45;;;;;;;6.93;6.30;;;4.90;99.90;;;;;;6189041;23;20802;-86
2022/04/10 05:20:12;;;;;;;7.00;5.93;;;5.00;99.90;;;;;;6186787;23;20409;-86
2022/04/10 05:22:41;;;;;;;6.90;6.20;;;5.00;99.90;;;;;;6196240;23;20414;-87
2022/04/10 05:25:09;;;;;;;8.23;6.83;;;4.90;99.90;;;;;;6213560;23;20410;-89
2022/04/10 05:27:36;;;;;;;7.80;6.03;;;5.00;99.90;;;;;;6192476;23;20432;-87
2022/04/10 05:30:04;;;;;;;14.13;7.07;;;5.00;99.90;;;;;;6186283;23;20420;-86
2022/04/10 05:32:30;;;;;;;8.20;6.00;;;5.10;99.90;;;;;;6191702;23;20455;-86
2022/04/10 05:34:57;;;;;;;6.90;6.20;;;5.10;99.90;;;;;;6200733;23;20464;-86
2022/04/10 05:37:24;;;;;;;6.20;5.50;;;5.20;99.90;;;;;;6203301;23;20469;-87
2022/04/10 05:39:52;;;;;;;6.70;6.00;;;5.20;99.90;;;;;;6198150;23;20421;-86
2022/04/10 05:42:18;;;;;;;8.90;5.70;;;5.20;99.90;;;;;;6189190;23;20405;-86
2022/04/10 05:44:45;;;;;;;6.87;6.20;;;5.20;99.90;;;;;;6207744;23;20394;-87
2022/04/10 05:47:12;;;;;;;7.10;6.30;;;5.20;99.90;;;;;;6208033;23;20439;-86
2022/04/10 05:49:39;;;;;;;7.70;6.77;;;5.30;99.90;;;;;;6197846;23;20401;-87
2022/04/10 05:52:07;;;;;;;8.00;6.43;;;5.40;99.90;;;;;;6193513;23;21356;-86
2022/04/10 05:54:34;;;;;;;8.20;6.90;;;5.50;99.90;;;;;;6188787;23;20412;-87
2022/04/10 05:57:02;;;;;;;10.27;6.67;;;5.60;99.90;;;;;;6187411;23;20495;-86
2022/04/10 05:59:28;;;;;;;7.03;6.33;;;5.60;99.90;;;;;;6186332;23;20873;-86
2022/04/10 06:01:55;;;;;;;7.57;6.30;;;5.70;99.90;;;;;;6185845;23;20415;-86
2022/04/10 06:04:22;;;;;;;6.90;6.30;;;5.60;99.90;;;;;;6185703;23;20412;-86
2022/04/10 06:06:49;;;;;;;6.50;5.80;;;5.50;99.90;;;;;;6185948;23;20403;-86
2022/04/10 06:09:16;;;;;;;6.70;6.10;;;5.50;99.90;;;;;;6190468;23;20420;-86
2022/04/10 06:11:42;;;;;;;7.57;6.30;;;5.50;99.90;;;;;;6212743;23;20480;-86
2022/04/10 06:14:10;;;;;;;6.13;5.50;;;5.60;99.90;;;;;;6211532;23;20521;-86
2022/04/10 06:16:37;;;;;;;7.03;6.17;;;5.70;99.90;;;;;;6211547;23;20437;-87
2022/04/10 06:19:04;;;;;;;12.13;7.60;;;5.90;99.90;;;;;;6201344;23;20401;-86
2022/04/10 06:21:31;;;;;;;9.30;6.17;;;5.90;99.90;;;;;;6190778;23;20409;-86
2022/04/10 06:23:57;;;;;;;7.73;6.30;;;6.10;99.90;;;;;;6188103;23;20404;-85
2022/04/10 06:26:24;;;;;;;6.33;5.73;;;6.00;99.90;;;;;;6188015;23;20415;-85
2022/04/10 06:28:51;;;;;;;7.20;6.60;;;6.20;99.90;;;;;;6187328;23;20468;-86
2022/04/10 06:31:19;;;;;;;6.17;5.57;;;6.30;99.90;;;;;;6187552;23;20414;-86
2022/04/10 06:33:46;;;;;;;6.20;5.70;;;6.50;99.90;;;;;;6187471;23;20439;-87
2022/04/10 06:36:12;;;;;;;7.40;6.60;;;6.50;99.90;;;;;;6194063;23;20414;-87
2022/04/10 06:38:39;;;;;;;6.90;5.60;;;6.70;99.90;;;;;;6194987;23;20452;-86
2022/04/10 06:41:06;;;;;;;7.87;5.83;;;6.90;99.90;;;;;;6188663;23;20405;-87
2022/04/10 06:43:32;;;;;;;7.10;6.43;;;7.20;99.70;;;;;;6187232;23;20405;-86
2022/04/10 06:45:59;;;;;;;6.13;5.53;;;7.40;99.20;;;;;;6187286;23;20414;-86
2022/04/10 06:48:27;;;;;;;8.70;6.27;;;7.40;98.20;;;;;;6187426;23;20426;-86
2022/04/10 06:50:54;;;;;;;6.67;5.93;;;7.30;98.40;;;;;;6187147;23;20488;-86
2022/04/10 06:53:21;;;;;;;6.50;5.40;;;7.30;98.80;;;;;;6188128;23;20449;-86
2022/04/10 06:55:47;;;;;;;6.67;5.60;;;7.50;98.00;;;;;;6185082;23;20458;-89
2022/04/10 06:58:17;;;;;;;6.73;5.20;;;7.70;97.70;;;;;;6188397;23;20772;-87
2022/04/10 07:00:43;;;;;;;7.13;6.40;;;7.90;97.00;;;;;;6188444;23;20401;-86
2022/04/10 07:03:10;;;;;;;6.40;5.80;;;8.00;96.60;;;;;;6191176;23;20406;-87
2022/04/10 07:05:39;;;;;;;5.97;5.30;;;8.20;96.10;;;;;;6198557;23;20432;-88
2022/04/10 07:08:06;;;;;;;6.60;6.00;;;8.30;95.50;;;;;;6189889;23;20409;-88
2022/04/10 07:10:33;;;;;;;9.43;7.80;;;8.60;94.80;;;;;;6188499;23;20406;-87
2022/04/10 07:13:00;;;;;;;7.90;4.93;;;8.70;94.20;;;;;;6205891;23;20461;-87
2022/04/10 07:15:27;;;;;;;6.03;5.50;;;8.70;94.10;;;;;;6211517;23;20416;-88
2022/04/10 07:17:56;;;;;;;5.00;4.60;;;8.90;93.60;;;;;;6194066;23;20406;-88
2022/04/10 07:20:22;;;;;;;5.70;5.20;;;9.40;93.00;;;;;;6213542;23;20414;-88
2022/04/10 07:25:35;;;;;;;5.47;4.50;;;10.00;90.50;;;;;;6188442;23;20412;-87
2022/04/10 07:28:02;;;;;;;6.63;5.60;;;10.00;90.20;;;;;;6191650;23;20406;-88
2022/04/10 07:30:29;;;;;;;6.53;5.50;;;10.00;90.20;;;;;;6186704;23;20421;-88
2022/04/10 07:32:58;;;;;;;7.30;6.00;;;10.20;89.60;;;;;;6186976;23;20433;-88
2022/04/10 07:35:25;;;;;;;8.27;5.23;;;10.00;88.60;;;;;;6188078;23;20967;-88
2022/04/10 07:37:53;;;;;;;5.83;5.33;;;10.10;88.90;;;;;;6186704;23;20414;-88
2022/04/10 07:40:20;;;;;;;5.53;5.03;;;10.00;87.80;;;;;;6187243;23;20406;-89
2022/04/10 07:42:47;;;;;;;6.53;5.93;;;10.20;87.70;;;;;;6187968;23;20414;-88
2022/04/10 07:47:25;;;;;;;5.80;5.30;;;10.00;87.10;;;;;;6185962;23;20809;-88
2022/04/10 07:48:03;;;;;;;6.20;5.23;;;10.20;86.90;;;;;;6190466;23;20490;-89
2022/04/10 07:50:30;;;;;;;8.33;7.53;;;10.60;86.20;;;;;;6188232;23;20402;-87
2022/04/10 07:52:58;;;;;;;6.10;5.50;;;11.00;84.40;;;;;;6200559;23;20442;-88
2022/04/10 07:55:26;;;;;;;5.80;5.30;;;11.30;82.30;;;;;;6212917;23;20414;-88
2022/04/10 07:57:53;;;;;;;6.00;4.63;;;11.40;81.40;;;;;;6208992;23;20916;-88
2022/04/10 08:00:20;;;;;;;6.27;5.67;;;11.50;78.50;;;;;;6192051;23;20415;-88
2022/04/10 08:02:48;;;;;;;5.60;5.13;;;11.20;78.30;;;;;;6189230;23;20469;-88
2022/04/10 08:05:15;;;;;;;6.37;5.87;;;11.40;79.00;;;;;;6187579;23;20529;-88
2022/04/10 08:07:43;;;;;;;6.03;5.40;;;11.40;78.60;;;;;;6189422;23;20394;-88
2022/04/10 08:10:12;;;;;;;4.93;4.43;;;11.40;78.10;;;;;;6185822;23;20469;-89
2022/04/10 08:12:40;;;;;;;6.60;5.37;;;11.70;78.60;;;;;;6185574;23;20406;-89
2022/04/10 08:15:08;;;;;;;6.07;4.87;;;11.90;76.10;;;;;;6185933;23;20454;-89
2022/04/10 08:17:35;;;;;;;9.93;5.33;;;12.30;75.40;;;;;;6186223;23;20905;-89
2022/04/10 08:20:04;;;;;;;5.17;4.67;;;12.60;74.80;;;;;;6185965;23;20414;-89
2022/04/10 08:22:32;;;;;;;4.90;4.43;;;13.00;73.50;;;;;;6186041;23;20448;-88
2022/04/10 08:25:01;;;;;;;5.27;4.80;;;13.00;72.70;;;;;;6187643;23;20509;-89
2022/04/10 08:27:30;;;;;;;6.73;5.10;;;13.10;71.20;;;;;;6186894;23;20474;-89
2022/04/10 08:29:57;;;;;;;6.30;4.90;;;13.00;70.20;;;;;;6189168;23;20443;-89
2022/04/10 08:32:24;;;;;;;5.60;4.80;;;12.50;70.70;;;;;;6194707;23;20452;-88
2022/04/10 08:34:51;;;;;;;5.83;4.87;;;12.60;70.30;;;;;;6209929;23;20449;-89
2022/04/10 08:37:18;;;;;;;5.70;4.77;;;12.80;69.40;;;;;;6195709;23;20878;-89
2022/04/10 08:39:44;;;;;;;5.80;5.23;;;13.00;68.00;;;;;;6187579;23;20410;-88
2022/04/10 08:42:11;;;;;;;6.03;5.43;;;13.10;67.50;;;;;;6185615;23;20417;-88
2022/04/10 08:44:39;;;;;;;7.10;6.43;;;13.20;67.10;;;;;;6186589;23;20419;-89
2022/04/10 08:47:06;;;;;;;6.77;5.03;;;12.90;66.10;;;;;;6186095;23;20421;-88
2022/04/10 08:49:35;;;;;;;7.47;5.27;;;12.70;66.90;;;;;;6187158;23;20406;-88
2022/04/10 08:52:01;;;;;;;6.07;5.57;;;12.70;66.30;;;;;;6186477;23;20410;-89
2022/04/10 08:54:28;;;;;;;6.07;5.47;;;12.90;65.60;;;;;;6185073;23;20449;-88
2022/04/10 08:56:57;;;;;;;7.17;5.87;;;13.10;65.90;;;;;;6184925;23;20409;-88
2022/04/10 08:59:24;;;;;;;5.93;5.20;;;13.60;65.00;;;;;;6213007;23;20418;-89
2022/04/10 09:01:56;;;;;;;10.63;5.90;;;14.00;64.00;;;;;;6212933;23;20409;-86
2022/04/10 09:04:23;;;;;;;6.47;4.77;;;14.10;63.40;;;;;;6210963;23;20437;-85
2022/04/10 09:07:02;;;;;;;6.40;5.40;;;14.50;62.20;;;;;;6208616;23;20525;-86
2022/04/10 09:09:30;;;;;;;5.87;5.10;;;15.20;60.10;;;;;;6195747;23;20417;-88
2022/04/10 09:11:58;;;;;;;5.30;4.80;;;15.40;58.50;;;;;;6204877;23;20505;-88
2022/04/10 09:14:26;;;;;;;7.30;6.13;;;16.20;57.80;;;;;;6192007;23;20788;-89
2022/04/10 09:17:14;;;;;;;5.40;4.90;;;16.80;56.00;;;;;;6188537;23;20413;-88
2022/04/10 09:19:45;;;;;;;5.80;4.60;;;17.30;54.80;;;;;;6199431;23;20429;-89
2022/04/10 09:22:23;;;;;;;7.13;5.00;;;18.40;52.80;;;;;;6191992;23;20728;-89
2022/04/10 09:25:11;;;;;;;6.43;5.57;;;18.30;49.90;;;;;;6209879;23;20484;-88
2022/04/10 09:27:40;;;;;;;7.20;5.30;;;18.40;50.10;;;;;;6212436;23;20379;-88
2022/04/10 09:30:09;;;;;;;5.57;5.07;;;18.80;48.90;;;;;;6212888;23;20393;-88
2022/04/10 09:32:43;;;;;;;5.70;4.43;;;20.20;48.60;;;;;;6213213;23;20392;-87
2022/04/10 09:35:11;;;;;;;5.00;4.60;;;20.10;45.70;;;;;;6211623;23;20526;-88
2022/04/10 09:37:46;;;;;;;5.87;4.83;;;18.70;46.40;;;;;;6204157;23;20406;-88
2022/04/10 09:40:33;;;;;;;4.80;4.13;;;17.50;48.00;;;;;;6212893;23;20496;-89
2022/04/10 09:43:03;;;;;;;8.57;4.40;;;16.00;49.60;;;;;;6213238;23;20393;-88
2022/04/10 09:45:32;;;;;;;4.87;4.37;;;15.00;51.20;;;;;;6213880;23;20421;-88
2022/04/10 09:48:18;;;;;;;4.93;4.43;;;16.30;53.10;;;;;;6213457;23;20441;-87
2022/04/10 09:50:45;;;;;;;4.07;3.67;;;17.40;50.20;;;;;;6212417;23;20394;-88
2022/04/10 09:53:11;;;;;;;9.43;5.17;;;17.50;50.20;;;;;;6202654;23;20881;-88
2022/04/10 09:55:40;;;;;;;6.67;4.80;;;17.40;50.00;;;;;;6202423;23;20482;-89
2022/04/10 09:58:09;;;;;;;4.60;4.10;;;18.00;49.40;;;;;;6190987;23;20505;-89
2022/04/10 10:00:38;;;;;;;5.57;3.77;;;18.70;48.80;;;;;;6191712;23;20791;-87
2022/04/10 10:03:07;;;;;;;5.80;3.80;;;19.80;44.20;;;;;;6189888;23;20427;-88
2022/04/10 10:05:35;;;;;;;4.43;4.03;;;21.90;42.60;;;;;;6198661;23;20432;-88
2022/04/10 10:08:02;;;;;;;5.83;4.03;;;21.90;40.90;;;;;;6209488;23;20441;-88
2022/04/10 10:10:31;;;;;;;6.37;3.40;;;20.40;40.60;;;;;;6201857;23;20412;-89
2022/04/10 10:13:00;;;;;;;3.73;3.37;;;19.10;42.40;;;;;;6204274;23;20414;-87
2022/04/10 10:15:28;;;;;;;4.13;3.37;;;17.80;43.80;;;;;;6203400;23;20449;-89
2022/04/10 10:17:55;;;;;;;5.50;3.70;;;16.40;45.30;;;;;;6193433;23;20406;-89
2022/04/10 10:20:24;;;;;;;5.87;3.97;;;15.50;48.60;;;;;;6197162;23;20473;-88
2022/04/10 10:22:51;;;;;;;6.43;4.17;;;14.90;50.70;;;;;;6194544;23;20500;-88
2022/04/10 10:25:24;;;;;;;4.10;3.70;;;14.60;51.40;;;;;;6194972;23;20421;-89
2022/04/10 10:28:36;;;;;;;3.97;3.23;;;14.70;51.20;;;;;;6195189;23;20401;-89
2022/04/10 10:31:31;;;;;;;5.20;3.90;;;14.30;51.30;;;;;;6196297;23;20471;-89
2022/04/10 10:34:02;;;;;;;5.37;3.83;;;13.50;52.10;;;;;;6191887;23;20511;-89
2022/04/10 10:36:31;;;;;;;7.57;4.43;;;13.00;52.70;;;;;;6198678;23;20434;-89
2022/04/10 10:38:59;;;;;;;7.47;5.03;;;12.50;57.30;;;;;;6201288;23;20406;-88
2022/04/10 10:41:37;;;;;;;6.20;4.57;;;12.00;64.20;;;;;;6200389;23;20410;-88
2022/04/10 10:44:38;;;;;;;9.23;4.90;;;11.50;68.90;;;;;;6198596;23;20454;-90
2022/04/10 10:47:05;;;;;;;5.63;5.03;;;11.40;72.10;;;;;;6196118;23;20441;-89
2022/04/10 10:49:42;;;;;;;6.73;5.67;;;11.70;71.40;;;;;;6194265;23;20406;-90
2022/04/10 10:52:11;;;;;;;6.20;4.70;;;11.90;71.60;;;;;;6192013;23;20375;-89
2022/04/10 10:54:44;;;;;;;6.03;5.43;;;12.40;70.80;;;;;;6197636;23;20465;-89
2022/04/10 10:57:40;;;;;;;5.70;5.10;;;13.70;67.60;;;;;;6210176;23;20400;-87
2022/04/10 11:00:14;;;;;;;8.27;5.80;;;15.60;62.40;;;;;;6140967;23;20409;-89
2022/04/10 11:02:47;;;;;;;5.47;4.97;;;18.20;58.20;;;;;;6193321;23;20417;-89
2022/04/10 11:05:29;;;;;;;7.10;5.20;;;19.60;51.40;;;;;;6199112;23;20433;-89
2022/04/10 11:07:59;;;;;;;8.50;6.23;;;18.30;50.10;;;;;;6190874;23;20460;-89
2022/04/10 11:10:28;;;;;;;6.73;5.13;;;16.50;52.40;;;;;;6193463;23;20775;-88
2022/04/10 11:13:00;;;;;;;4.80;3.60;;;15.60;53.80;;;;;;6191725;23;20413;-88
2022/04/10 11:15:32;;;;;;;3.63;3.23;;;14.70;53.70;;;;;;6194803;23;20451;-87
2022/04/10 11:18:32;;;;;;;3.87;3.47;;;14.00;55.60;;;;;;6197697;23;20396;-89
2022/04/10 11:21:06;;;;;;;11.03;4.37;;;14.00;56.60;;;;;;6202177;23;20392;-89
2022/04/10 11:23:41;;;;;;;4.20;3.10;;;16.10;56.40;;;;;;6214564;23;20374;-89
2022/04/10 11:26:13;;;;;;;3.37;2.67;;;19.00;50.50;;;;;;6197756;23;20437;-88
2022/04/10 11:28:55;;;;;;;4.27;2.97;;;21.40;45.70;;;;;;6188740;23;20494;-89
2022/04/10 11:31:32;;;;;;;5.13;4.23;;;20.40;43.50;;;;;;6184118;23;20469;-89
2022/04/10 11:34:08;;;;;;;6.37;4.43;;;18.70;44.40;;;;;;6186935;23;20912;-88
2022/04/10 11:36:55;;;;;;;11.57;8.57;;;17.80;47.10;;;;;;6188831;23;20868;-88
2022/04/10 11:39:28;;;;;;;7.87;5.17;;;17.00;48.00;;;;;;6198008;23;20382;-89
2022/04/10 11:41:58;;;;;;;6.03;5.07;;;16.80;48.80;;;;;;6211084;23;20438;-88
2022/04/10 11:44:26;;;;;;;6.40;5.13;;;16.60;49.50;;;;;;6207045;23;20408;-88
2022/04/10 11:46:52;;;;;;;5.10;4.67;;;17.80;49.40;;;;;;6212956;23;20395;-88
2022/04/10 11:49:20;;;;;;;4.90;4.37;;;20.70;46.70;;;;;;6207967;23;20481;-88
2022/04/10 11:51:54;;;;;;;6.20;4.87;;;22.20;43.40;;;;;;6202090;23;20415;-89
2022/04/10 11:54:26;;;;;;;6.33;4.50;;;23.30;41.40;;;;;;6190644;23;20475;-89
2022/04/10 11:56:53;;;;;;;6.77;4.60;;;22.20;39.10;;;;;;6189058;23;20419;-88
2022/04/10 11:59:20;;;;;;;5.33;4.80;;;21.40;41.30;;;;;;6198997;23;20407;-88
2022/04/10 12:01:49;;;;;;;6.60;5.63;;;20.90;42.00;;;;;;6191297;23;20422;-88
2022/04/10 12:04:20;;;;;;;5.93;4.60;;;20.50;42.90;;;;;;6195491;23;20427;-88
2022/04/10 12:06:49;;;;;;;6.73;5.70;;;19.80;43.30;;;;;;6209776;23;20386;-87
2022/04/10 12:09:15;;;;;;;5.97;5.30;;;18.20;44.40;;;;;;6205836;23;20409;-87
2022/04/10 12:11:44;;;;;;;5.80;5.20;;;16.20;45.80;;;;;;6192865;23;20901;-88
2022/04/10 12:14:24;;;;;;;9.23;6.07;;;15.00;49.40;;;;;;6193635;23;20413;-87
2022/04/10 12:16:51;;;;;;;15.63;10.13;;;14.30;52.00;;;;;;6189022;23;20399;-89
2022/04/10 12:19:29;;;;;;;9.30;7.50;;;13.70;54.40;;;;;;6191143;23;20416;-88
2022/04/10 12:21:56;;;;;;;5.90;5.33;;;13.20;56.20;;;;;;6189401;23;20772;-88
2022/04/10 12:24:23;;;;;;;5.90;5.40;;;13.00;56.90;;;;;;6191208;23;20818;-88
2022/04/10 12:26:54;;;;;;;9.20;8.40;;;12.80;57.20;;;;;;6189147;23;20414;-89
2022/04/10 12:29:22;;;;;;;8.23;6.40;;;12.80;58.40;;;;;;6189469;23;20454;-88
2022/04/10 12:31:50;;;;;;;7.67;5.60;;;13.20;59.10;;;;;;6189681;23;20804;-88
2022/04/10 12:34:18;;;;;;;6.90;5.20;;;13.80;59.10;;;;;;6190145;23;20432;-88
2022/04/10 12:36:46;;;;;;;10.03;7.30;;;15.60;57.40;;;;;;6188394;23;20889;-89
2022/04/10 12:39:26;;;;;;;5.13;4.30;;;17.50;55.00;;;;;;6189740;23;20484;-88
2022/04/10 12:42:03;;;;;;;4.47;4.03;;;18.10;52.50;;;;;;6190921;23;20394;-87
2022/04/10 12:44:31;;;;;;;4.87;4.47;;;18.10;52.30;;;;;;6205194;23;20457;-87
2022/04/10 12:46:58;;;;;;;5.20;4.37;;;18.10;51.90;;;;;;6208620;23;20408;-88
2022/04/10 12:49:25;;;;;;;4.60;3.90;;;17.90;52.00;;;;;;6200998;23;20433;-88
2022/04/10 12:51:55;;;;;;;5.90;4.27;;;17.70;51.80;;;;;;6210970;23;20382;-87
2022/04/10 12:54:35;;;;;;;4.37;3.93;;;17.00;52.80;;;;;;6211197;23;20424;-87
2022/04/10 12:57:04;;;;;;;8.10;4.40;;;16.40;54.50;;;;;;6184289;23;20411;-89
2022/04/10 12:59:46;;;;;;;4.87;4.37;;;16.00;54.90;;;;;;6210088;23;20422;-87
2022/04/10 13:02:24;;;;;;;7.60;4.23;;;15.60;53.80;;;;;;6212948;23;20406;-88
2022/04/10 13:04:58;;;;;;;4.30;3.90;;;15.40;54.00;;;;;;6210976;23;20423;-89
2022/04/10 13:07:37;;;;;;;5.33;4.10;;;15.60;53.80;;;;;;6212019;23;20408;-88
2022/04/10 13:10:06;;;;;;;3.87;3.57;;;15.30;53.80;;;;;;6212833;23;20384;-88